createdAt,value
2022-09-12T05:05:34.802Z,62.50
2022-09-12T05:08:02.839Z,62.40
2022-09-12T05:10:31.181Z,62.20
2022-09-12T05:12:59.540Z,62.00
2022-09-12T05:15:27.337Z,61.90
2022-09-12T05:17:55.217Z,61.70
2022-09-12T05:20:23.003Z,61.60
2022-09-12T05:22:52.355Z,61.60
2022-09-12T05:25:20.111Z,61.60
2022-09-12T05:27:50.536Z,61.60
2022-09-12T05:30:18.675Z,61.60
2022-09-12T05:32:46.750Z,61.60
2022-09-12T05:35:14.906Z,61.70
2022-09-12T05:37:43.909Z,62.10
2022-09-12T05:40:16.173Z,62.30
2022-09-12T05:42:43.968Z,62.20
2022-09-12T05:45:11.876Z,62.30
2022-09-12T05:47:39.727Z,62.30
2022-09-12T05:50:10.938Z,62.20
2022-09-12T05:52:38.867Z,62.40
2022-09-12T05:55:07.164Z,62.60
2022-09-12T05:57:36.611Z,62.70
2022-09-12T06:00:05.369Z,62.80
2022-09-12T06:02:33.258Z,62.60
2022-09-12T06:05:01.874Z,62.30
2022-09-12T06:07:29.666Z,62.40
2022-09-12T06:09:59.277Z,62.50
2022-09-12T06:12:32.286Z,62.80
2022-09-12T06:15:01.704Z,62.70
2022-09-12T06:17:29.589Z,62.60
2022-09-12T06:19:57.369Z,62.70
2022-09-12T06:22:25.539Z,62.50
2022-09-12T06:24:57.369Z,62.40
2022-09-12T06:27:25.903Z,62.50
2022-09-12T06:29:53.695Z,62.60
2022-09-12T06:32:22.966Z,62.70
2022-09-12T06:34:50.931Z,62.80
2022-09-12T06:37:18.741Z,62.90
2022-09-12T06:39:46.991Z,62.80
2022-09-12T06:42:15.315Z,62.70
2022-09-12T06:44:45.059Z,62.60
2022-09-12T06:47:13.144Z,62.40
2022-09-12T06:49:42.454Z,62.40
2022-09-12T06:52:10.273Z,62.40
2022-09-12T06:54:38.158Z,62.50
2022-09-12T06:57:08.955Z,62.70
2022-09-12T06:59:36.747Z,63.20
2022-09-12T07:02:04.586Z,63.30
2022-09-12T07:04:33.646Z,63.20
2022-09-12T07:07:05.933Z,63.00
2022-09-12T07:09:33.960Z,62.90
2022-09-12T07:12:04.415Z,62.60
2022-09-12T07:14:32.251Z,62.60
2022-09-12T07:17:00.149Z,62.60
2022-09-12T07:19:27.994Z,62.60
2022-09-12T07:21:58.682Z,62.50
2022-09-12T07:24:28.222Z,62.30
2022-09-12T07:26:57.436Z,62.30
2022-09-12T07:29:36.678Z,62.20
2022-09-12T07:32:05.847Z,62.20
2022-09-12T07:34:34.114Z,62.70
2022-09-12T07:37:01.932Z,62.80
2022-09-12T07:39:31.141Z,62.70
2022-09-12T07:42:00.480Z,62.50
2022-09-12T07:44:28.318Z,62.10
2022-09-12T07:46:56.161Z,61.90
2022-09-12T07:49:24.141Z,61.80
2022-09-12T07:51:51.932Z,61.60
2022-09-12T07:54:19.934Z,61.40
2022-09-12T07:56:49.088Z,61.40
2022-09-12T07:59:35.326Z,61.50
2022-09-12T08:02:05.194Z,61.40
2022-09-12T08:04:33.212Z,61.30
2022-09-12T08:07:00.977Z,61.30
2022-09-12T08:09:28.860Z,61.30
2022-09-12T08:11:58.012Z,61.60
2022-09-12T08:14:25.893Z,61.70
2022-09-12T08:16:53.668Z,61.90
2022-09-12T08:19:22.747Z,62.00
2022-09-12T08:21:50.506Z,62.40
2022-09-12T08:24:18.720Z,62.80
2022-09-12T08:26:46.810Z,62.20
2022-09-12T08:29:16.120Z,61.70
2022-09-12T08:31:43.952Z,61.60
2022-09-12T08:34:11.747Z,62.00
2022-09-12T08:36:39.534Z,61.80
2022-09-12T08:39:08.477Z,61.80
2022-09-12T08:41:37.465Z,61.60
2022-09-12T08:44:12.946Z,61.30
2022-09-12T08:46:47.101Z,61.40
2022-09-12T08:49:16.476Z,61.80
2022-09-12T08:51:44.457Z,61.60
2022-09-12T08:54:20.038Z,61.90
2022-09-12T08:56:48.678Z,61.70
2022-09-12T08:59:16.680Z,61.20
2022-09-12T09:01:46.447Z,60.30
2022-09-12T09:04:20.579Z,60.50
2022-09-12T09:06:56.724Z,60.80
2022-09-12T09:09:31.716Z,60.70
2022-09-12T09:12:04.787Z,60.30
2022-09-12T09:14:49.398Z,59.60
2022-09-12T09:17:21.554Z,59.40
2022-09-12T09:19:52.521Z,59.20
2022-09-12T09:22:26.294Z,59.30
2022-09-12T09:24:57.000Z,59.00
2022-09-12T09:27:40.542Z,58.50
2022-09-12T09:30:13.938Z,58.10
2022-09-12T09:32:43.707Z,58.00
2022-09-12T09:35:17.529Z,57.80
2022-09-12T09:37:52.808Z,57.80
2022-09-12T09:40:25.464Z,57.60
2022-09-12T09:42:57.736Z,57.80
2022-09-12T09:45:29.083Z,57.50
2022-09-12T09:48:01.601Z,57.10
2022-09-12T09:50:30.060Z,57.10
2022-09-12T09:52:59.025Z,57.20
2022-09-12T09:55:28.532Z,57.20
2022-09-12T09:57:56.410Z,57.00
2022-09-12T10:00:25.973Z,56.80
2022-09-12T10:03:15.025Z,56.80
2022-09-12T10:05:48.060Z,56.60
2022-09-12T10:08:30.386Z,56.50
2022-09-12T10:10:59.857Z,56.30
2022-09-12T10:13:39.202Z,55.50
2022-09-12T10:16:08.727Z,54.90
2022-09-12T10:18:41.748Z,54.80
2022-09-12T10:21:30.542Z,54.40
2022-09-12T10:24:15.472Z,53.60
2022-09-12T10:26:46.921Z,52.70
2022-09-12T10:29:16.573Z,52.50
2022-09-12T10:31:46.667Z,52.90
2022-09-12T10:34:25.324Z,52.80
2022-09-12T10:36:54.476Z,52.10
2022-09-12T10:39:23.975Z,52.10
2022-09-12T10:41:51.959Z,52.00
2022-09-12T10:44:26.129Z,52.30
2022-09-12T10:46:54.395Z,52.00
2022-09-12T10:49:26.452Z,51.30
2022-09-12T10:51:54.961Z,51.10
2022-09-12T10:54:25.940Z,50.90
2022-09-12T10:56:58.004Z,50.40
2022-09-12T10:59:53.507Z,50.00
2022-09-12T11:02:36.627Z,49.90
2022-09-12T11:05:09.060Z,50.10
2022-09-12T11:07:40.476Z,49.70
2022-09-12T11:10:16.514Z,49.20
2022-09-12T11:12:49.014Z,49.80
2022-09-12T11:15:27.342Z,48.70
2022-09-12T11:17:57.383Z,48.50
2022-09-12T11:20:43.726Z,48.50
2022-09-12T11:23:26.599Z,47.90
2022-09-12T11:26:00.009Z,47.70
2022-09-12T11:28:32.078Z,47.40
2022-09-12T11:31:08.836Z,47.40
2022-09-12T11:33:43.145Z,47.00
2022-09-12T11:36:17.782Z,46.70
2022-09-12T11:39:00.371Z,46.80
2022-09-12T11:41:32.028Z,46.20
2022-09-12T11:44:03.586Z,46.20
2022-09-12T11:46:34.726Z,46.50
2022-09-12T11:49:06.331Z,46.30
2022-09-12T11:51:36.667Z,46.30
2022-09-12T11:54:13.241Z,46.50
2022-09-12T11:56:45.816Z,46.40
2022-09-12T11:59:16.737Z,46.60
2022-09-12T12:01:48.697Z,45.60
2022-09-12T12:04:18.959Z,45.40
2022-09-12T12:06:49.974Z,45.40
2022-09-12T12:09:17.829Z,45.50
2022-09-12T12:11:50.416Z,45.00
2022-09-12T12:14:19.961Z,44.40
2022-09-12T12:16:48.067Z,44.40
2022-09-12T12:19:31.536Z,44.60
2022-09-12T12:22:05.948Z,44.30
2022-09-12T12:24:34.128Z,43.80
2022-09-12T12:27:04.219Z,43.50
2022-09-12T12:29:43.677Z,43.30
2022-09-12T12:32:22.188Z,42.70
2022-09-12T12:34:50.096Z,42.20
2022-09-12T12:37:39.766Z,42.40
2022-09-12T12:40:11.225Z,42.00
2022-09-12T12:43:05.527Z,41.70
2022-09-12T12:45:51.018Z,41.60
2022-09-12T12:48:20.423Z,41.50
2022-09-12T12:50:48.522Z,41.60
2022-09-12T12:53:19.612Z,41.80
2022-09-12T12:55:48.275Z,41.80
2022-09-12T12:58:27.255Z,41.60
2022-09-12T13:01:04.480Z,41.90
2022-09-12T13:03:34.098Z,41.80
2022-09-12T13:06:03.262Z,41.60
2022-09-12T13:08:32.097Z,41.30
2022-09-12T13:11:01.017Z,41.10
2022-09-12T13:13:32.706Z,41.30
2022-09-12T13:16:00.477Z,41.10
2022-09-12T13:18:29.489Z,41.40
2022-09-12T13:21:05.030Z,40.90
2022-09-12T13:23:33.495Z,41.10
2022-09-12T13:26:01.832Z,41.00
2022-09-12T13:28:30.062Z,40.70
2022-09-12T13:31:02.945Z,40.50
2022-09-12T13:33:38.133Z,41.00
2022-09-12T13:36:17.577Z,41.20
2022-09-12T13:38:52.361Z,40.60
2022-09-12T13:41:25.382Z,40.00
2022-09-12T13:43:53.271Z,39.30
2022-09-12T13:46:23.513Z,39.40
2022-09-12T13:48:51.295Z,39.10
2022-09-12T13:51:24.273Z,39.50
2022-09-12T13:53:53.075Z,40.60
2022-09-12T13:56:21.374Z,39.70
2022-09-12T13:58:54.759Z,39.90
2022-09-12T14:01:23.096Z,40.30
2022-09-12T14:04:09.571Z,39.80
2022-09-12T14:06:44.744Z,39.70
2022-09-12T14:09:15.727Z,39.10
2022-09-12T14:11:43.455Z,39.40
2022-09-12T14:14:19.614Z,39.40
2022-09-12T14:16:47.468Z,38.30
2022-09-12T14:19:16.268Z,38.40
2022-09-12T14:21:45.611Z,37.90
2022-09-12T14:24:14.783Z,38.00
2022-09-12T14:26:43.622Z,38.60
2022-09-12T14:29:16.648Z,38.90
2022-09-12T14:31:44.687Z,38.90
2022-09-12T14:34:13.593Z,38.60
2022-09-12T14:36:43.337Z,38.60
2022-09-12T14:39:22.179Z,38.20
2022-09-12T14:41:50.373Z,38.00
2022-09-12T14:44:20.560Z,38.10
2022-09-12T14:46:48.898Z,38.00
2022-09-12T14:49:18.362Z,38.20
2022-09-12T14:51:51.472Z,37.30
2022-09-12T14:54:37.895Z,37.40
2022-09-12T14:57:06.604Z,37.60
2022-09-12T14:59:38.419Z,37.70
2022-09-12T15:02:26.847Z,37.60
2022-09-12T15:04:55.263Z,37.50
2022-09-12T15:07:29.451Z,37.10
2022-09-12T15:09:59.203Z,37.00
2022-09-12T15:12:27.380Z,36.70
2022-09-12T15:14:58.144Z,36.80
2022-09-12T15:17:25.944Z,37.00
2022-09-12T15:19:53.663Z,37.00
2022-09-12T15:22:22.800Z,37.10
2022-09-12T15:24:50.545Z,37.30
2022-09-12T15:27:19.665Z,37.30
2022-09-12T15:29:47.554Z,37.50
2022-09-12T15:32:23.639Z,37.60
2022-09-12T15:34:51.371Z,37.60
2022-09-12T15:37:20.098Z,37.50
2022-09-12T15:39:47.968Z,37.20
2022-09-12T15:42:16.516Z,37.10
2022-09-12T15:44:45.715Z,37.10
2022-09-12T15:47:14.176Z,37.20
2022-09-12T15:49:41.878Z,37.40
2022-09-12T15:52:12.690Z,37.60
2022-09-12T15:54:41.054Z,38.00
2022-09-12T15:57:09.531Z,38.00
2022-09-12T15:59:37.473Z,38.20
2022-09-12T16:02:06.896Z,38.30
2022-09-12T16:04:35.507Z,38.40
2022-09-12T16:07:03.405Z,38.30
2022-09-12T16:09:31.142Z,38.20
2022-09-12T16:11:58.857Z,38.30
2022-09-12T16:14:26.631Z,38.40
2022-09-12T16:16:57.553Z,38.50
2022-09-12T16:19:26.815Z,38.20
2022-09-12T16:21:54.534Z,38.30
2022-09-12T16:24:22.321Z,38.50
2022-09-12T16:26:50.207Z,38.50
2022-09-12T16:29:18.147Z,38.60
2022-09-12T16:31:46.493Z,38.90
2022-09-12T16:34:14.586Z,39.10
2022-09-12T16:36:45.176Z,39.30
2022-09-12T16:39:12.995Z,39.50
2022-09-12T16:41:42.128Z,39.60
2022-09-12T16:44:10.208Z,39.70
2022-09-12T16:46:38.022Z,39.70
2022-09-12T16:49:06.455Z,39.90
2022-09-12T16:51:36.755Z,40.20
2022-09-12T16:54:05.985Z,40.40
2022-09-12T16:56:33.891Z,40.60
2022-09-12T16:59:01.634Z,40.60
2022-09-12T17:01:29.457Z,40.60
2022-09-12T17:03:57.916Z,40.70
2022-09-12T17:06:26.158Z,40.90
2022-09-12T17:08:55.099Z,41.00
2022-09-12T17:11:24.807Z,41.20
2022-09-12T17:14:04.509Z,41.60
2022-09-12T17:16:33.979Z,41.70
2022-09-12T17:19:01.781Z,41.90
2022-09-12T17:21:29.512Z,42.00
2022-09-12T17:23:57.306Z,42.20
2022-09-12T17:26:26.834Z,42.30
2022-09-12T17:28:54.663Z,42.60
2022-09-12T17:31:22.555Z,42.70
2022-09-12T17:33:50.426Z,43.00
2022-09-12T17:36:18.766Z,43.20
2022-09-12T17:38:46.955Z,43.30
2022-09-12T17:41:16.123Z,43.40
2022-09-12T17:43:46.356Z,43.40
2022-09-12T17:46:14.680Z,43.50
2022-09-12T17:48:42.695Z,43.60
2022-09-12T17:51:10.885Z,43.90
2022-09-12T17:53:41.903Z,44.80
2022-09-12T17:56:16.385Z,44.50
2022-09-12T17:59:11.526Z,44.80
2022-09-12T18:01:57.057Z,45.20
2022-09-12T18:07:24.825Z,45.90
2022-09-12T18:09:53.294Z,46.30
2022-09-12T18:12:21.471Z,46.80
2022-09-12T18:14:50.717Z,47.00
2022-09-12T18:17:18.706Z,47.20
2022-09-12T18:19:52.880Z,47.60
2022-09-12T18:22:21.850Z,48.00
2022-09-12T18:24:49.856Z,48.20
2022-09-12T18:27:17.686Z,48.40
2022-09-12T18:30:04.197Z,48.50
2022-09-12T18:32:37.667Z,48.60
2022-09-12T18:35:05.860Z,48.60
2022-09-12T18:37:33.979Z,48.70
2022-09-12T18:40:04.263Z,48.90
2022-09-12T18:42:32.657Z,49.10
2022-09-12T18:45:00.960Z,49.30
2022-09-12T18:47:28.855Z,49.40
2022-09-12T18:49:58.260Z,49.60
2022-09-12T18:52:26.147Z,49.70
2022-09-12T18:54:54.122Z,49.70
2022-09-12T18:57:21.962Z,49.90
2022-09-12T18:59:49.955Z,50.10
2022-09-12T19:02:17.910Z,50.20
2022-09-12T19:04:45.783Z,50.30
2022-09-12T19:07:16.928Z,50.30
2022-09-12T19:09:44.795Z,50.40
2022-09-12T19:12:12.835Z,50.60
2022-09-12T19:14:40.594Z,50.80
2022-09-12T19:17:09.482Z,50.90
2022-09-12T19:19:40.471Z,51.00
2022-09-12T19:22:09.703Z,51.10
2022-09-12T19:24:39.835Z,51.20
2022-09-12T19:27:07.789Z,51.40
2022-09-12T19:29:35.658Z,51.40
2022-09-12T19:32:03.861Z,51.40
2022-09-12T19:34:31.703Z,51.60
2022-09-12T19:36:59.606Z,51.80
2022-09-12T19:39:27.521Z,52.00
2022-09-12T19:41:56.753Z,51.90
2022-09-12T19:44:27.183Z,52.00
2022-09-12T19:46:55.184Z,52.10
2022-09-12T19:49:23.212Z,52.10
2022-09-12T19:51:51.076Z,52.20
2022-09-12T19:54:19.584Z,52.30
2022-09-12T19:56:47.744Z,52.50
2022-09-12T19:59:17.102Z,52.60
2022-09-12T20:01:45.120Z,52.80
2022-09-12T20:04:13.106Z,52.80
2022-09-12T20:06:40.990Z,53.00
2022-09-12T20:09:10.881Z,53.00
2022-09-12T20:11:42.159Z,53.00
2022-09-12T20:14:11.653Z,53.10
2022-09-12T20:16:40.821Z,53.30
2022-09-12T20:19:08.731Z,53.50
2022-09-12T20:21:37.163Z,53.80
2022-09-12T20:24:05.877Z,53.90
2022-09-12T20:26:34.245Z,53.90
2022-09-12T20:29:02.160Z,54.00
2022-09-12T20:31:32.167Z,54.10
2022-09-12T20:34:01.496Z,54.60
2022-09-12T20:36:29.334Z,54.80
2022-09-12T20:38:57.865Z,55.10
2022-09-12T20:41:27.066Z,55.00
2022-09-12T20:43:56.011Z,54.90
2022-09-12T20:46:24.586Z,54.70
2022-09-12T20:48:52.932Z,54.80
2022-09-12T20:51:26.831Z,54.80
2022-09-12T20:54:06.710Z,54.80
2022-09-12T20:56:35.802Z,54.90
2022-09-12T20:59:04.366Z,55.00
2022-09-12T21:01:33.112Z,55.00
2022-09-12T21:04:01.822Z,55.10
2022-09-12T21:06:31.591Z,55.00
2022-09-12T21:09:00.618Z,55.00
2022-09-12T21:11:32.104Z,55.10
2022-09-12T21:13:59.987Z,55.20
2022-09-12T21:16:28.095Z,55.40
2022-09-12T21:19:01.981Z,55.60
2022-09-12T21:21:31.275Z,55.70
2022-09-12T21:23:59.561Z,55.60
2022-09-12T21:26:29.047Z,55.60
2022-09-12T21:28:57.533Z,55.60
2022-09-12T21:31:25.691Z,55.60
2022-09-12T21:33:53.650Z,55.70
2022-09-12T21:36:21.598Z,55.70
2022-09-12T21:38:51.032Z,55.90
2022-09-12T21:41:19.596Z,56.00
2022-09-12T21:43:48.799Z,55.90
2022-09-12T21:46:16.948Z,56.60
2022-09-12T21:48:47.722Z,55.90
2022-09-12T21:51:15.697Z,55.90
2022-09-12T21:53:43.631Z,55.90
2022-09-12T21:56:14.012Z,56.10
2022-09-12T21:58:43.994Z,56.40
2022-09-12T22:01:12.110Z,56.60
2022-09-12T22:03:43.073Z,56.60
2022-09-12T22:06:14.545Z,56.60
2022-09-12T22:08:48.896Z,56.70
2022-09-12T22:11:28.080Z,56.70
2022-09-12T22:14:01.648Z,56.80
2022-09-12T22:16:30.020Z,56.80
2022-09-12T22:18:59.474Z,56.90
2022-09-12T22:21:27.386Z,57.00
2022-09-12T22:24:12.942Z,57.10
2022-09-12T22:26:47.823Z,57.20
2022-09-12T22:29:21.701Z,57.40
2022-09-12T22:31:49.568Z,57.50
2022-09-12T22:34:17.600Z,57.50
2022-09-12T22:36:45.460Z,57.50
2022-09-12T22:39:13.467Z,57.40
2022-09-12T22:41:41.640Z,57.20
2022-09-12T22:44:17.854Z,57.40
2022-09-12T22:46:45.929Z,57.50
2022-09-12T22:49:13.884Z,57.50
2022-09-12T22:51:41.869Z,57.70
2022-09-12T22:54:10.704Z,57.70
2022-09-12T22:56:39.432Z,57.60
2022-09-12T22:59:07.593Z,57.60
2022-09-12T23:01:36.825Z,57.50
2022-09-12T23:04:06.055Z,57.70
2022-09-12T23:06:33.878Z,57.90
2022-09-12T23:09:01.835Z,58.10
2022-09-12T23:11:29.628Z,58.30
2022-09-12T23:13:57.384Z,58.50
2022-09-12T23:16:26.403Z,58.80
2022-09-12T23:18:55.655Z,58.90
2022-09-12T23:21:23.546Z,58.70
2022-09-12T23:23:56.198Z,58.60
2022-09-12T23:26:24.880Z,58.60
2022-09-12T23:28:53.805Z,58.70
2022-09-12T23:31:21.895Z,58.80
2022-09-12T23:33:50.544Z,58.70
2022-09-12T23:36:19.904Z,58.70
2022-09-12T23:38:49.183Z,58.90
2022-09-12T23:41:17.609Z,58.90
2022-09-12T23:43:45.889Z,58.80
2022-09-12T23:46:14.069Z,58.80
2022-09-12T23:48:42.197Z,59.00
2022-09-12T23:51:12.326Z,59.10
2022-09-12T23:53:41.694Z,59.10
2022-09-12T23:56:09.647Z,59.30
2022-09-12T23:58:37.884Z,59.40
